createdAt,value
2019-05-26T00:00:09.479Z,13.03
2019-05-26T00:02:38.564Z,12.82
2019-05-26T00:05:08.546Z,12.75
2019-05-26T00:07:37.450Z,12.73
2019-05-26T00:10:08.294Z,13.95
2019-05-26T00:12:38.914Z,13.25
2019-05-26T00:15:07.950Z,13.15
2019-05-26T00:17:36.773Z,14.00
2019-05-26T00:20:06.810Z,13.26
2019-05-26T00:22:35.396Z,12.88
2019-05-26T00:25:07.564Z,14.64
2019-05-26T00:27:36.680Z,14.07
2019-05-26T00:30:10.454Z,14.52
2019-05-26T00:32:39.033Z,13.60
2019-05-26T00:35:08.137Z,12.30
2019-05-26T00:37:49.177Z,13.45
2019-05-26T00:40:09.725Z,12.63
2019-05-26T00:42:38.586Z,12.80
2019-05-26T00:45:07.886Z,12.65
2019-05-26T00:47:37.208Z,12.83
2019-05-26T00:50:07.614Z,12.23
2019-05-26T00:52:38.445Z,12.10
2019-05-26T00:55:07.548Z,11.38
2019-05-26T00:57:37.056Z,12.47
2019-05-26T01:00:07.289Z,11.78
2019-05-26T01:02:36.817Z,12.03
2019-05-26T01:05:06.810Z,11.20
2019-05-26T01:07:35.906Z,12.20
2019-05-26T01:10:09.397Z,11.50
2019-05-26T01:12:39.285Z,12.60
2019-05-26T01:15:08.378Z,10.63
2019-05-26T01:17:37.478Z,11.25
2019-05-26T01:20:07.328Z,11.03
2019-05-26T01:22:36.160Z,11.00
2019-05-26T01:25:07.733Z,11.12
2019-05-26T01:27:37.256Z,11.28
2019-05-26T01:30:07.658Z,11.18
2019-05-26T01:32:38.387Z,10.80
2019-05-26T01:35:07.387Z,11.83
2019-05-26T01:37:37.293Z,11.50
2019-05-26T01:40:07.258Z,10.88
2019-05-26T01:42:37.989Z,11.45
2019-05-26T01:45:08.598Z,10.93
2019-05-26T01:47:37.462Z,10.35
2019-05-26T01:50:07.192Z,10.26
2019-05-26T01:52:36.048Z,10.23
2019-05-26T01:55:06.790Z,10.56
2019-05-26T01:57:36.049Z,10.58
2019-05-26T02:00:07.237Z,10.38
2019-05-26T02:02:38.682Z,9.93
2019-05-26T02:05:07.465Z,9.98
2019-05-26T02:07:36.206Z,9.38
2019-05-26T02:10:06.608Z,9.38
2019-05-26T02:12:35.800Z,9.55
2019-05-26T02:15:07.451Z,10.28
2019-05-26T02:17:39.824Z,10.10
2019-05-26T02:20:09.433Z,9.80
2019-05-26T02:22:39.633Z,9.68
2019-05-26T02:25:08.621Z,9.68
2019-05-26T02:27:37.426Z,9.20
2019-05-26T02:30:07.923Z,8.80
2019-05-26T02:32:37.261Z,9.10
2019-05-26T02:35:07.064Z,8.58
2019-05-26T02:37:35.539Z,9.45
2019-05-26T02:40:08.323Z,9.43
2019-05-26T02:42:38.139Z,8.55
2019-05-26T02:45:07.715Z,7.80
2019-05-26T02:47:38.578Z,8.38
2019-05-26T02:50:07.547Z,8.43
2019-05-26T02:52:36.602Z,8.25
2019-05-26T02:55:06.759Z,8.05
2019-05-26T02:57:35.546Z,7.63
2019-05-26T03:00:08.225Z,7.33
2019-05-26T03:02:37.214Z,7.87
2019-05-26T03:05:08.362Z,7.15
2019-05-26T03:07:38.910Z,8.00
2019-05-26T03:10:07.595Z,7.40
2019-05-26T03:12:37.994Z,6.60
2019-05-26T03:15:07.594Z,6.47
2019-05-26T03:17:37.975Z,6.35
2019-05-26T03:20:06.761Z,6.70
2019-05-26T03:22:39.490Z,6.77
2019-05-26T03:25:08.072Z,6.72
2019-05-26T03:27:38.526Z,6.50
2019-05-26T03:30:07.899Z,6.62
2019-05-26T03:32:36.922Z,6.10
2019-05-26T03:35:09.595Z,6.35
2019-05-26T03:37:39.083Z,6.22
2019-05-26T03:40:08.710Z,5.90
2019-05-26T03:42:39.305Z,5.53
2019-05-26T03:45:08.309Z,5.28
2019-05-26T03:47:39.761Z,5.60
2019-05-26T03:50:08.747Z,5.70
2019-05-26T03:52:37.635Z,5.90
2019-05-26T03:55:08.955Z,5.77
2019-05-26T03:57:39.198Z,5.70
2019-05-26T04:00:11.622Z,5.62
2019-05-26T04:02:40.458Z,5.25
2019-05-26T04:05:09.267Z,5.28
2019-05-26T04:07:39.211Z,4.85
2019-05-26T04:10:08.354Z,5.42
2019-05-26T04:12:37.248Z,5.05
2019-05-26T04:15:07.271Z,4.90
2019-05-26T04:17:37.213Z,4.65
2019-05-26T04:20:06.678Z,5.28
2019-05-26T04:22:35.667Z,4.67
2019-05-26T04:25:07.948Z,4.90
2019-05-26T04:27:36.966Z,5.00
2019-05-26T04:30:06.859Z,4.84
2019-05-26T04:32:37.296Z,5.12
2019-05-26T04:35:06.978Z,5.30
2019-05-26T04:37:37.734Z,4.30
2019-05-26T04:40:26.013Z,4.40
2019-05-26T04:42:40.093Z,4.60
2019-05-26T04:45:08.992Z,4.12
2019-05-26T04:47:39.309Z,4.78
2019-05-26T04:50:09.014Z,4.12
2019-05-26T04:52:38.083Z,4.47
2019-05-26T04:55:08.128Z,4.30
2019-05-26T04:57:38.675Z,4.42
2019-05-26T05:00:07.577Z,4.37
2019-05-26T05:02:42.899Z,4.28
2019-05-26T05:14:09.407Z,3.87
2019-05-26T05:24:15.288Z,4.42
2019-05-26T05:26:56.395Z,4.33
2019-05-26T05:29:22.166Z,4.00
2019-05-26T05:31:50.746Z,4.22
2019-05-26T05:34:19.531Z,3.80
2019-05-26T05:36:48.757Z,3.72
2019-05-26T05:39:17.745Z,3.83
2019-05-26T05:41:47.848Z,4.30
2019-05-26T05:44:16.417Z,3.40
2019-05-26T05:46:45.006Z,3.50
2019-05-26T05:49:13.898Z,3.33
2019-05-26T05:51:42.887Z,3.52
2019-05-26T05:54:11.466Z,3.00
2019-05-26T05:56:40.974Z,4.15
2019-05-26T05:59:09.691Z,3.00
2019-05-26T06:01:39.667Z,3.30
2019-05-26T06:04:08.454Z,3.42
2019-05-26T06:06:37.656Z,3.20
2019-05-26T06:12:28.039Z,3.33
2019-05-26T06:15:10.568Z,3.40
2019-05-26T06:17:39.484Z,3.17
2019-05-26T06:20:08.759Z,3.35
2019-05-26T06:22:40.257Z,3.45
2019-05-26T06:25:12.718Z,3.57
2019-05-26T06:27:45.490Z,3.30
2019-05-26T06:30:18.497Z,3.70
2019-05-26T06:32:51.448Z,3.55
2019-05-26T06:35:24.104Z,3.80
2019-05-26T06:37:57.242Z,3.90
2019-05-26T06:40:30.242Z,3.40
2019-05-26T06:43:03.378Z,3.72
2019-05-26T06:45:43.049Z,3.90
2019-05-26T06:48:16.114Z,3.67
2019-05-26T06:50:49.605Z,4.17
2019-05-26T06:53:19.131Z,4.27
2019-05-26T06:55:47.713Z,4.10
2019-05-26T06:58:16.806Z,4.43
2019-05-26T07:00:46.598Z,4.40
2019-05-26T07:03:15.177Z,3.73
2019-05-26T07:05:43.757Z,3.62
2019-05-26T07:08:12.441Z,4.00
2019-05-26T07:10:44.505Z,4.25
2019-05-26T07:13:13.405Z,3.72
2019-05-26T07:15:41.975Z,4.60
2019-05-26T07:18:10.482Z,4.47
2019-05-26T07:20:39.349Z,4.25
2019-05-26T07:23:08.662Z,4.63
2019-05-26T07:25:38.248Z,4.07
2019-05-26T07:28:06.833Z,4.17
2019-05-26T07:30:39.826Z,4.47
2019-05-26T07:33:08.585Z,4.47
2019-05-26T07:35:37.900Z,4.40
2019-05-26T07:38:07.204Z,4.15
2019-05-26T07:40:35.785Z,3.40
2019-05-26T07:43:06.910Z,3.66
2019-05-26T07:45:35.924Z,3.65
2019-05-26T07:48:06.505Z,3.40
2019-05-26T07:50:35.028Z,3.72
2019-05-26T07:53:03.809Z,3.80
2019-05-26T07:55:32.397Z,3.20
2019-05-26T07:58:01.591Z,2.67
2019-05-26T08:00:39.215Z,3.27
2019-05-26T08:03:08.077Z,3.42
2019-05-26T08:05:37.196Z,3.15
2019-05-26T08:08:12.499Z,3.20
2019-05-26T08:10:37.432Z,3.20
2019-05-26T08:13:06.804Z,2.72
2019-05-26T08:15:35.924Z,2.83
2019-05-26T08:18:06.730Z,3.00
2019-05-26T08:20:37.388Z,2.87
2019-05-26T08:23:06.306Z,2.45
2019-05-26T08:25:35.154Z,2.40
2019-05-26T08:28:05.779Z,2.06
2019-05-26T08:30:34.356Z,2.17
2019-05-26T08:33:03.248Z,1.62
2019-05-26T08:35:31.835Z,1.60
2019-05-26T08:38:02.073Z,1.40
2019-05-26T08:40:31.147Z,1.40
2019-05-26T08:42:59.730Z,0.60
2019-05-26T08:45:28.838Z,0.53
2019-05-26T08:47:58.525Z,0.70
2019-05-26T08:50:29.477Z,0.85
2019-05-26T08:52:58.794Z,0.60
2019-05-26T08:55:28.602Z,0.60
2019-05-26T08:57:57.769Z,0.60
2019-05-26T09:00:29.814Z,0.45
2019-05-26T09:03:00.225Z,0.60
2019-05-26T09:05:28.737Z,0.47
2019-05-26T09:07:57.744Z,0.50
2019-05-26T09:10:26.754Z,0.70
2019-05-26T09:13:01.279Z,0.70
2019-05-26T09:15:26.475Z,0.50
2019-05-26T09:17:54.956Z,0.65
2019-05-26T09:20:23.751Z,0.50
2019-05-26T09:22:52.505Z,0.80
2019-05-26T09:25:21.352Z,0.63
2019-05-26T09:27:50.515Z,0.60
2019-05-26T09:30:19.413Z,0.90
2019-05-26T09:32:48.490Z,0.80
2019-05-26T09:35:17.263Z,0.87
2019-05-26T09:37:45.868Z,0.72
2019-05-26T09:40:15.106Z,0.80
2019-05-26T09:42:44.028Z,0.62
2019-05-26T09:45:12.817Z,0.80
2019-05-26T09:47:41.565Z,0.70
2019-05-26T09:50:10.486Z,0.80
2019-05-26T09:52:39.395Z,0.90
2019-05-26T09:55:08.180Z,0.80
2019-05-26T09:57:37.101Z,0.70
2019-05-26T10:00:10.526Z,0.60
2019-05-26T10:02:39.952Z,0.68
2019-05-26T10:05:08.541Z,0.70
2019-05-26T10:07:38.168Z,0.80
2019-05-26T10:10:07.443Z,0.87
2019-05-26T10:12:36.600Z,0.90
2019-05-26T10:15:07.071Z,2.68
2019-05-26T10:17:35.576Z,1.20
2019-05-26T10:20:07.608Z,1.20
2019-05-26T10:22:39.053Z,2.62
2019-05-26T10:25:18.685Z,2.55
2019-05-26T10:27:47.484Z,1.02
2019-05-26T10:30:16.372Z,0.97
2019-05-26T10:32:46.184Z,1.03
2019-05-26T10:35:18.677Z,0.82
2019-05-26T10:37:47.687Z,1.00
2019-05-26T10:40:17.208Z,0.70
2019-05-26T10:42:48.809Z,1.00
2019-05-26T10:45:17.904Z,0.88
2019-05-26T10:47:46.508Z,0.70
2019-05-26T10:50:17.734Z,0.77
2019-05-26T10:52:46.216Z,0.80
2019-05-26T10:55:14.921Z,0.67
2019-05-26T10:57:43.810Z,0.70
2019-05-26T11:00:18.026Z,0.60
2019-05-26T11:02:47.955Z,0.60
2019-05-26T11:05:16.801Z,0.60
2019-05-26T11:07:45.582Z,0.50
2019-05-26T11:10:14.374Z,0.60
2019-05-26T11:12:43.185Z,0.50
2019-05-26T11:15:12.256Z,0.67
2019-05-26T11:17:41.158Z,0.50
2019-05-26T11:20:10.646Z,0.45
2019-05-26T11:22:40.792Z,0.60
2019-05-26T11:25:09.989Z,0.60
2019-05-26T11:27:39.393Z,0.55
2019-05-26T11:30:09.784Z,0.50
2019-05-26T11:32:39.807Z,0.72
2019-05-26T11:35:11.457Z,0.60
2019-05-26T11:37:40.244Z,0.70
2019-05-26T11:40:11.617Z,0.50
2019-05-26T11:42:40.589Z,0.50
2019-05-26T11:45:09.469Z,0.95
2019-05-26T11:47:38.153Z,0.80
2019-05-26T11:50:07.029Z,0.63
2019-05-26T11:52:39.034Z,0.88
2019-05-26T11:55:08.563Z,0.62
2019-05-26T11:57:37.754Z,0.70
2019-05-26T12:00:07.758Z,0.60
2019-05-26T12:02:38.486Z,0.70
2019-05-26T12:05:10.209Z,0.70
2019-05-26T12:07:40.424Z,0.60
2019-05-26T12:10:14.363Z,0.70
2019-05-26T12:12:43.604Z,0.90
2019-05-26T12:15:12.681Z,0.90
2019-05-26T12:17:41.444Z,0.65
2019-05-26T12:20:10.741Z,0.60
2019-05-26T12:22:40.166Z,0.72
2019-05-26T12:25:10.681Z,0.60
2019-05-26T12:27:39.353Z,0.82
2019-05-26T12:30:10.635Z,0.88
2019-05-26T12:32:40.285Z,0.63
2019-05-26T12:35:09.268Z,0.53
2019-05-26T12:37:39.700Z,0.55
2019-05-26T12:40:08.998Z,0.75
2019-05-26T12:42:38.293Z,0.83
2019-05-26T12:45:07.861Z,0.70
2019-05-26T12:47:39.045Z,0.90
2019-05-26T12:50:09.279Z,0.70
2019-05-26T12:52:38.059Z,0.65
2019-05-26T12:55:09.202Z,1.10
2019-05-26T12:57:41.159Z,0.95
2019-05-26T13:00:10.686Z,1.10
2019-05-26T13:02:44.310Z,0.88
2019-05-26T13:05:12.860Z,1.27
2019-05-26T13:07:44.432Z,0.70
2019-05-26T13:10:13.640Z,0.90
2019-05-26T13:12:42.781Z,1.15
2019-05-26T13:15:11.903Z,1.10
2019-05-26T13:17:40.466Z,1.10
2019-05-26T13:20:10.317Z,1.18
2019-05-26T13:22:41.265Z,1.07
2019-05-26T13:25:11.633Z,1.27
2019-05-26T13:27:40.728Z,1.10
2019-05-26T13:30:16.805Z,1.20
2019-05-26T13:32:45.904Z,1.15
2019-05-26T13:35:14.869Z,1.20
2019-05-26T13:37:43.934Z,1.05
2019-05-26T13:40:13.034Z,1.30
2019-05-26T13:42:42.011Z,1.10
2019-05-26T13:45:22.296Z,1.30
2019-05-26T13:47:44.091Z,1.40
2019-05-26T13:50:14.475Z,1.40
2019-05-26T13:52:46.105Z,1.40
2019-05-26T13:55:15.333Z,1.13
2019-05-26T13:57:45.076Z,1.37
2019-05-26T14:00:17.715Z,1.60
2019-05-26T14:02:48.072Z,1.10
2019-05-26T14:05:17.096Z,1.37
2019-05-26T14:07:45.894Z,1.40
2019-05-26T14:10:16.014Z,1.23
2019-05-26T14:12:44.899Z,1.50
2019-05-26T14:15:15.586Z,1.37
2019-05-26T14:17:44.651Z,1.07
2019-05-26T14:20:14.741Z,1.10
2019-05-26T14:22:46.326Z,0.98
2019-05-26T14:25:19.786Z,1.20
2019-05-26T14:27:49.959Z,1.20
2019-05-26T14:30:23.022Z,1.13
2019-05-26T14:32:53.525Z,1.00
2019-05-26T14:35:22.122Z,0.83
2019-05-26T14:37:51.016Z,0.90
2019-05-26T14:40:20.893Z,1.27
2019-05-26T14:42:49.801Z,0.90
2019-05-26T14:45:18.896Z,0.78
2019-05-26T14:47:48.005Z,0.95
2019-05-26T14:50:18.395Z,0.80
2019-05-26T14:52:47.611Z,1.00
2019-05-26T14:55:16.434Z,1.10
2019-05-26T14:57:45.288Z,0.80
2019-05-26T15:00:17.767Z,1.12
2019-05-26T15:02:48.410Z,1.52
2019-05-26T15:05:17.384Z,1.40
2019-05-26T15:07:46.151Z,1.10
2019-05-26T15:10:15.288Z,1.03
2019-05-26T15:12:44.500Z,1.10
2019-05-26T15:15:15.089Z,1.00
2019-05-26T15:17:45.209Z,1.17
2019-05-26T15:20:15.632Z,1.20
2019-05-26T15:22:44.217Z,1.40
2019-05-26T15:25:13.107Z,1.32
2019-05-26T15:27:42.126Z,1.33
2019-05-26T15:30:14.463Z,1.50
2019-05-26T15:32:43.462Z,1.73
2019-05-26T15:35:12.039Z,1.40
2019-05-26T15:37:40.926Z,1.50
2019-05-26T15:40:09.921Z,1.27
2019-05-26T15:42:40.372Z,1.23
2019-05-26T15:45:09.118Z,1.40
2019-05-26T15:47:40.066Z,1.10
2019-05-26T15:50:13.740Z,1.30
2019-05-26T15:52:42.045Z,1.22
2019-05-26T15:55:11.141Z,1.20
2019-05-26T15:57:39.919Z,1.30
2019-05-26T16:00:08.971Z,1.40
2019-05-26T16:02:40.498Z,1.40
2019-05-26T16:05:10.729Z,1.50
2019-05-26T16:07:39.374Z,1.25
2019-05-26T16:10:08.834Z,1.42
2019-05-26T16:12:38.385Z,1.53
2019-05-26T16:15:08.501Z,1.67
2019-05-26T16:17:39.017Z,1.70
2019-05-26T16:20:08.533Z,1.40
2019-05-26T16:22:37.765Z,1.62
2019-05-26T16:25:07.185Z,1.60
2019-05-26T16:27:36.360Z,2.08
2019-05-26T16:30:07.702Z,1.60
2019-05-26T16:32:36.362Z,1.90
2019-05-26T16:35:06.163Z,2.02
2019-05-26T16:37:34.757Z,1.62
2019-05-26T16:40:06.687Z,1.85
2019-05-26T16:42:35.633Z,1.90
2019-05-26T16:45:06.995Z,1.65
2019-05-26T16:47:36.200Z,1.52
2019-05-26T16:50:08.109Z,2.10
2019-05-26T16:52:37.739Z,1.98
2019-05-26T16:55:08.165Z,1.90
2019-05-26T16:57:40.531Z,1.72
2019-05-26T17:00:09.633Z,1.70
2019-05-26T17:02:39.951Z,1.90
2019-05-26T17:05:08.637Z,1.90
2019-05-26T17:07:37.934Z,1.82
2019-05-26T17:10:08.637Z,2.15
2019-05-26T17:12:41.977Z,1.95
2019-05-26T17:15:15.737Z,1.90
2019-05-26T17:17:42.927Z,1.90
2019-05-26T17:20:13.261Z,2.93
2019-05-26T17:22:42.020Z,2.50
2019-05-26T17:25:11.328Z,3.60
2019-05-26T17:27:40.307Z,1.73
2019-05-26T17:30:09.721Z,1.70
2019-05-26T17:32:39.801Z,1.35
2019-05-26T17:35:08.493Z,1.20
2019-05-26T17:37:38.022Z,1.42
2019-05-26T17:40:07.505Z,1.37
2019-05-26T17:42:38.470Z,1.37
2019-05-26T17:45:07.663Z,1.10
2019-05-26T17:47:37.724Z,1.15
2019-05-26T17:50:07.469Z,0.88
2019-05-26T17:52:36.351Z,0.80
2019-05-26T17:55:07.243Z,1.07
2019-05-26T17:57:37.226Z,0.90
2019-05-26T18:00:10.623Z,0.72
2019-05-26T18:02:40.713Z,0.90
2019-05-26T18:05:10.525Z,0.80
2019-05-26T18:07:40.667Z,1.20
2019-05-26T18:10:09.642Z,0.90
2019-05-26T18:12:38.866Z,0.90
2019-05-26T18:15:08.975Z,0.80
2019-05-26T18:17:47.149Z,0.90
2019-05-26T18:20:10.406Z,1.00
2019-05-26T18:22:40.327Z,1.00
2019-05-26T18:25:09.652Z,1.20
2019-05-26T18:27:39.056Z,1.00
2019-05-26T18:30:08.232Z,0.98
2019-05-26T18:32:38.068Z,1.37
2019-05-26T18:35:07.678Z,1.10
2019-05-26T18:37:39.533Z,1.10
2019-05-26T18:40:09.048Z,1.40
2019-05-26T18:42:40.972Z,1.17
2019-05-26T18:45:10.195Z,1.27
2019-05-26T18:47:39.456Z,1.40
2019-05-26T18:50:08.713Z,1.50
2019-05-26T18:52:37.894Z,1.45
2019-05-26T18:55:08.067Z,1.40
2019-05-26T18:57:36.897Z,1.22
2019-05-26T19:00:09.877Z,1.30
2019-05-26T19:02:40.407Z,1.32
2019-05-26T19:05:08.953Z,1.60
2019-05-26T19:07:40.745Z,1.50
2019-05-26T19:10:09.837Z,1.87
2019-05-26T19:12:38.369Z,1.45
2019-05-26T19:15:08.304Z,1.37
2019-05-26T19:17:37.298Z,1.45
2019-05-26T19:20:16.158Z,1.70
2019-05-26T19:25:23.212Z,1.70
2019-05-26T19:27:52.208Z,1.60
2019-05-26T19:30:23.243Z,1.70
2019-05-26T19:32:53.771Z,1.80
2019-05-26T19:35:22.868Z,1.87
2019-05-26T19:37:53.635Z,1.60
2019-05-26T19:40:22.387Z,1.77
2019-05-26T19:42:54.076Z,1.70
2019-05-26T19:45:25.799Z,1.90
2019-05-26T19:47:54.506Z,1.98
2019-05-26T19:50:23.160Z,1.83
2019-05-26T19:52:51.851Z,2.00
2019-05-26T19:55:21.587Z,2.30
2019-05-26T19:57:50.449Z,2.15
2019-05-26T20:00:24.159Z,1.90
2019-05-26T20:02:56.285Z,1.90
2019-05-26T20:05:24.796Z,1.80
2019-05-26T20:07:53.373Z,2.00
2019-05-26T20:10:22.534Z,2.00
2019-05-26T20:12:51.464Z,2.30
2019-05-26T20:15:24.048Z,2.10
2019-05-26T20:17:53.032Z,1.90
2019-05-26T20:20:23.276Z,2.10
2019-05-26T20:22:52.044Z,1.90
2019-05-26T20:25:20.847Z,2.10
2019-05-26T20:27:57.861Z,2.20
2019-05-26T20:30:27.127Z,2.15
2019-05-26T20:32:55.811Z,2.40
2019-05-26T20:35:24.369Z,1.97
2019-05-26T20:37:57.961Z,2.20
2019-05-26T20:40:28.085Z,2.10
2019-05-26T20:42:57.307Z,1.98
2019-05-26T20:45:25.969Z,2.47
2019-05-26T20:47:54.553Z,2.35
2019-05-26T20:50:29.223Z,2.23
2019-05-26T20:52:53.801Z,2.75
2019-05-26T20:55:24.734Z,2.42
2019-05-26T20:57:53.461Z,2.80
2019-05-26T21:00:25.700Z,2.00
2019-05-26T21:02:54.748Z,2.35
2019-05-26T21:05:26.190Z,2.30
2019-05-26T21:07:54.980Z,2.40
2019-05-26T21:10:23.565Z,2.33
2019-05-26T21:12:52.148Z,2.40
2019-05-26T21:15:20.909Z,1.95
2019-05-26T21:17:49.844Z,2.35
2019-05-26T21:20:19.226Z,2.20
2019-05-26T21:22:48.832Z,2.45
2019-05-26T21:25:17.516Z,2.70
2019-05-26T21:27:46.093Z,2.80
2019-05-26T21:30:14.874Z,2.50
2019-05-26T21:32:44.005Z,2.50
2019-05-26T21:35:12.619Z,2.67
2019-05-26T21:37:41.254Z,2.65
2019-05-26T21:40:10.134Z,2.70
2019-05-26T21:42:39.865Z,2.47
2019-05-26T21:45:08.864Z,2.42
2019-05-26T21:47:39.364Z,2.70
2019-05-26T21:50:09.541Z,2.65
2019-05-26T21:52:38.676Z,2.25
2019-05-26T21:55:08.114Z,2.65
2019-05-26T21:57:36.619Z,2.12
2019-05-26T22:00:11.699Z,2.27
2019-05-26T22:02:42.049Z,2.22
2019-05-26T22:05:11.358Z,2.15
2019-05-26T22:07:41.364Z,2.50
2019-05-26T22:10:10.217Z,2.50
2019-05-26T22:12:40.972Z,2.40
2019-05-26T22:15:10.213Z,2.33
2019-05-26T22:17:40.631Z,1.97
2019-05-26T22:20:10.924Z,1.90
2019-05-26T22:22:41.507Z,2.10
2019-05-26T22:25:11.993Z,2.40
2019-05-26T22:27:40.858Z,2.08
2019-05-26T22:30:10.655Z,1.83
2019-05-26T22:32:39.886Z,2.20
2019-05-26T22:35:08.989Z,2.30
2019-05-26T22:37:38.533Z,2.00
2019-05-26T22:40:09.081Z,2.12
2019-05-26T22:42:38.720Z,2.15
2019-05-26T22:45:10.229Z,2.00
2019-05-26T22:47:40.689Z,2.13
2019-05-26T22:50:09.549Z,1.50
2019-05-26T22:52:39.978Z,1.40
2019-05-26T22:55:08.841Z,1.50
2019-05-26T22:57:37.507Z,1.45
2019-05-26T23:00:07.398Z,1.45
2019-05-26T23:02:37.250Z,1.50
2019-05-26T23:05:07.762Z,1.35
2019-05-26T23:07:36.692Z,1.40
2019-05-26T23:10:07.040Z,1.50
2019-05-26T23:12:36.107Z,1.30
2019-05-26T23:15:09.413Z,1.57
2019-05-26T23:17:39.454Z,1.40
2019-05-26T23:20:10.071Z,1.20
2019-05-26T23:22:41.594Z,1.40
2019-05-26T23:25:10.485Z,1.00
2019-05-26T23:27:40.606Z,1.10
2019-05-26T23:30:09.418Z,1.00
2019-05-26T23:32:38.278Z,1.00
2019-05-26T23:35:07.123Z,1.00
2019-05-26T23:37:35.641Z,1.05
2019-05-26T23:40:06.455Z,1.10
2019-05-26T23:42:34.961Z,0.98
2019-05-26T23:45:05.006Z,0.70
2019-05-26T23:47:34.071Z,0.80
2019-05-26T23:50:02.670Z,0.70
2019-05-26T23:52:31.751Z,0.78
2019-05-26T23:55:00.593Z,0.80
2019-05-26T23:57:30.354Z,0.43
2019-05-26T23:59:58.929Z,0.80
